Time;durP1;ratioP1;P1;durP2;ratioP2;P2;SDS_P1;SDS_P2;PMS_P1;PMS_P2;Temp;Humidity;BMP_temperature;BMP_pressure;BME280_temperature;BME280_humidity;BME280_pressure;Samples;Min_cycle;Max_cycle;Signal;HPM_P1;HPM_P2
2022/04/11 00:00:52;;;;;;;;;;;0.80;99.90;;;;;;5053532;28;19911;-80
2022/04/11 00:03:17;;;;;;;;;;;0.80;99.90;;;;;;5052177;28;19909;-79
2022/04/11 00:05:43;;;;;;;;;;;0.80;99.90;;;;;;5052265;28;19958;-79
2022/04/11 00:08:08;;;;;;;;;;;0.80;99.90;;;;;;5053765;28;19915;-80
2022/04/11 00:10:34;;;;;;;;;;;0.80;99.90;;;;;;5053520;28;19904;-80
2022/04/11 00:13:00;;;;;;;;;;;0.80;99.90;;;;;;5053415;28;19940;-80
2022/04/11 00:15:26;;;;;;;;;;;0.80;99.90;;;;;;5052047;28;19905;-80
2022/04/11 00:17:52;;;;;;;;;;;0.70;99.90;;;;;;5053547;28;19912;-80
2022/04/11 00:20:18;;;;;;;;;;;0.60;99.90;;;;;;5052146;28;19909;-80
2022/04/11 00:22:44;;;;;;;;;;;0.60;99.90;;;;;;5052058;28;19912;-80
2022/04/11 00:25:10;;;;;;;;;;;0.60;99.90;;;;;;5051982;28;19904;-80
2022/04/11 00:27:35;;;;;;;;;;;0.50;99.90;;;;;;5053374;28;19916;-80
2022/04/11 00:30:01;;;;;;;;;;;0.40;99.90;;;;;;5053399;28;19904;-80
2022/04/11 00:32:26;;;;;;;;;;;0.40;99.90;;;;;;5053623;28;19909;-80
2022/04/11 00:34:52;;;;;;;;;;;0.40;99.90;;;;;;5053261;28;19966;-79
2022/04/11 00:37:18;;;;;;;;;;;0.40;99.90;;;;;;5053214;28;20380;-80
2022/04/11 00:39:43;;;;;;;;;;;0.40;99.90;;;;;;5053936;28;20284;-80
2022/04/11 00:42:13;;;;;;;;;;;0.40;99.90;;;;;;5057514;28;19904;-80
2022/04/11 00:44:39;;;;;;;;;;;0.30;99.90;;;;;;5055737;28;19936;-80
2022/04/11 00:47:04;;;;;;;;;;;0.30;99.90;;;;;;5056732;28;19927;-80
2022/04/11 00:49:30;;;;;;;;;;;0.20;99.90;;;;;;5056984;28;19905;-80
2022/04/11 00:51:56;;;;;;;;;;;0.10;99.90;;;;;;5055506;28;19905;-80
2022/04/11 00:54:22;;;;;;;;;;;0.10;99.90;;;;;;5056527;28;19905;-80
2022/04/11 00:56:48;;;;;;;;;;;0.00;99.90;;;;;;5056530;28;19909;-80
2022/04/11 00:59:15;;;;;;;;;;;0.00;99.90;;;;;;5055330;28;19912;-80
2022/04/11 01:01:41;;;;;;;;;;;-0.10;99.90;;;;;;5056456;28;19905;-80
2022/04/11 01:04:22;;;;;;;;;;;-0.10;99.90;;;;;;5057253;28;19912;-80
2022/04/11 01:06:52;;;;;;;;;;;-0.20;99.90;;;;;;5056159;28;19909;-80
2022/04/11 01:09:17;;;;;;;;;;;-0.20;99.90;;;;;;5056895;28;20063;-80
2022/04/11 01:11:43;;;;;;;;;;;-0.20;99.90;;;;;;5055468;28;20312;-80
2022/04/11 01:14:08;;;;;;;;;;;-0.20;99.90;;;;;;5056569;28;19905;-80
2022/04/11 01:16:34;;;;;;;;;;;-0.30;99.90;;;;;;5055609;28;20011;-80
2022/04/11 01:18:59;;;;;;;;;;;-0.30;99.90;;;;;;5056829;28;20329;-80
2022/04/11 01:21:30;;;;;;;;;;;-0.30;99.90;;;;;;5057075;28;20015;-80
2022/04/11 01:23:59;;;;;;;;;;;-0.30;99.90;;;;;;5057070;28;19905;-80
2022/04/11 01:26:25;;;;;;;;;;;-0.20;99.90;;;;;;5056839;28;19995;-80
2022/04/11 01:28:51;;;;;;;;;;;-0.20;99.90;;;;;;5056711;28;19991;-80
2022/04/11 01:31:16;;;;;;;;;;;-0.20;99.90;;;;;;5056656;28;19959;-80
2022/04/11 01:33:42;;;;;;;;;;;-0.20;99.90;;;;;;5056540;28;19905;-80
2022/04/11 01:36:07;;;;;;;;;;;-0.20;99.90;;;;;;5056168;28;19909;-80
2022/04/11 01:38:33;;;;;;;;;;;-0.20;99.90;;;;;;5057416;28;19958;-77
2022/04/11 01:40:58;;;;;;;;;;;-0.30;99.90;;;;;;5057118;28;19952;-77
2022/04/11 01:43:25;;;;;;;;;;;-0.20;99.90;;;;;;5055800;28;19944;-78
2022/04/11 01:45:50;;;;;;;;;;;-0.20;99.90;;;;;;5056620;28;19908;-77
2022/04/11 01:48:16;;;;;;;;;;;-0.20;99.90;;;;;;5057136;28;19916;-77
2022/04/11 01:50:42;;;;;;;;;;;-0.20;99.90;;;;;;5056398;28;19905;-77
2022/04/11 01:53:12;;;;;;;;;;;-0.20;99.90;;;;;;5056264;28;19908;-79
2022/04/11 01:55:38;;;;;;;;;;;-0.20;99.90;;;;;;5057078;28;20372;-77
2022/04/11 01:58:04;;;;;;;;;;;-0.10;99.90;;;;;;5057341;28;19911;-77
2022/04/11 02:00:30;;;;;;;;;;;-0.10;99.90;;;;;;5057211;28;19904;-77
2022/04/11 02:02:55;;;;;;;;;;;-0.10;99.90;;;;;;5055631;28;19905;-77
2022/04/11 02:05:21;;;;;;;;;;;0.00;99.90;;;;;;5056850;28;19904;-77
2022/04/11 02:07:47;;;;;;;;;;;0.00;99.90;;;;;;5056949;28;19909;-77
2022/04/11 02:10:12;;;;;;;;;;;0.00;99.90;;;;;;5056575;28;19994;-77
2022/04/11 02:12:40;;;;;;;;;;;0.00;99.90;;;;;;5057079;28;19962;-77
2022/04/11 02:15:07;;;;;;;;;;;0.00;99.90;;;;;;5055541;28;19940;-77
2022/04/11 02:17:32;;;;;;;;;;;0.00;99.90;;;;;;5056681;28;19955;-77
2022/04/11 02:19:58;;;;;;;;;;;0.00;99.90;;;;;;5055614;28;19912;-77
2022/04/11 02:22:23;;;;;;;;;;;0.00;99.90;;;;;;5056447;28;19927;-77
2022/04/11 02:24:49;;;;;;;;;;;0.00;99.90;;;;;;5056276;28;20262;-77
2022/04/11 02:27:15;;;;;;;;;;;-0.10;99.90;;;;;;5056376;28;19958;-77
2022/04/11 02:29:41;;;;;;;;;;;0.00;99.90;;;;;;5056314;28;19905;-77
2022/04/11 02:32:06;;;;;;;;;;;-0.10;99.90;;;;;;5056318;28;20377;-77
2022/04/11 02:34:32;;;;;;;;;;;0.00;99.90;;;;;;5055159;28;19912;-77
2022/04/11 02:36:58;;;;;;;;;;;0.00;99.90;;;;;;5055962;28;19909;-77
2022/04/11 02:39:23;;;;;;;;;;;-0.10;99.90;;;;;;5056158;28;19919;-77
2022/04/11 02:41:49;;;;;;;;;;;-0.10;99.90;;;;;;5055053;28;19908;-77
2022/04/11 02:44:14;;;;;;;;;;;-0.10;99.90;;;;;;5056053;28;19932;-77
2022/04/11 02:46:42;;;;;;;;;;;-0.20;99.90;;;;;;5054631;28;19936;-77
2022/04/11 02:49:08;;;;;;;;;;;-0.30;99.90;;;;;;5056161;28;19931;-77
2022/04/11 02:51:34;;;;;;;;;;;-0.30;99.90;;;;;;5056367;28;19905;-77
2022/04/11 02:54:01;;;;;;;;;;;-0.40;99.90;;;;;;5055719;28;19959;-77
2022/04/11 02:56:27;;;;;;;;;;;-0.50;99.90;;;;;;5055843;28;19995;-77
2022/04/11 02:58:52;;;;;;;;;;;-0.50;99.90;;;;;;5055846;28;19940;-77
2022/04/11 03:01:18;;;;;;;;;;;-0.60;99.90;;;;;;5055646;28;19904;-77
2022/04/11 03:03:43;;;;;;;;;;;-0.60;99.90;;;;;;5055623;28;20279;-77
2022/04/11 03:06:09;;;;;;;;;;;-0.60;99.90;;;;;;5055681;28;19905;-77
2022/04/11 03:08:34;;;;;;;;;;;-0.50;99.90;;;;;;5055541;28;19955;-77
2022/04/11 03:11:00;;;;;;;;;;;-0.50;99.90;;;;;;5054182;28;19904;-77
2022/04/11 03:13:25;;;;;;;;;;;-0.50;99.90;;;;;;5055454;28;19904;-77
2022/04/11 03:15:51;;;;;;;;;;;-0.50;99.90;;;;;;5055506;28;19905;-77
2022/04/11 03:18:17;;;;;;;;;;;-0.40;99.90;;;;;;5055304;28;19909;-77
2022/04/11 03:20:42;;;;;;;;;;;-0.40;99.90;;;;;;5055504;28;19940;-77
2022/04/11 03:23:08;;;;;;;;;;;-0.40;99.90;;;;;;5055511;28;19971;-77
2022/04/11 03:25:33;;;;;;;;;;;-0.40;99.90;;;;;;5055220;28;20298;-77
2022/04/11 03:27:59;;;;;;;;;;;-0.40;99.90;;;;;;5055483;28;20276;-77
2022/04/11 03:30:25;;;;;;;;;;;-0.40;99.90;;;;;;5053871;28;19911;-77
2022/04/11 03:32:50;;;;;;;;;;;-0.50;99.90;;;;;;5054755;28;19905;-77
2022/04/11 03:35:16;;;;;;;;;;;-0.50;99.90;;;;;;5055163;28;19904;-77
2022/04/11 03:37:41;;;;;;;;;;;-0.50;99.90;;;;;;5055281;28;20390;-77
2022/04/11 03:40:07;;;;;;;;;;;-0.50;99.90;;;;;;5054891;28;20280;-77
2022/04/11 03:42:33;;;;;;;;;;;-0.50;99.90;;;;;;5053838;28;19905;-77
2022/04/11 03:44:58;;;;;;;;;;;-0.50;99.90;;;;;;5054749;28;19913;-77
2022/04/11 03:47:24;;;;;;;;;;;-0.50;99.90;;;;;;5054897;28;19995;-77
2022/04/11 03:49:50;;;;;;;;;;;-0.50;99.90;;;;;;5055312;28;19951;-77
2022/04/11 03:52:15;;;;;;;;;;;-0.50;99.90;;;;;;5054972;28;19944;-77
2022/04/11 03:54:41;;;;;;;;;;;-0.50;99.90;;;;;;5053479;28;19905;-77
2022/04/11 03:57:06;;;;;;;;;;;-0.50;99.90;;;;;;5054794;28;20337;-78
2022/04/11 03:59:32;;;;;;;;;;;-0.50;99.90;;;;;;5054984;28;19908;-78
2022/04/11 04:01:58;;;;;;;;;;;-0.60;99.90;;;;;;5055031;28;19959;-78
2022/04/11 04:04:23;;;;;;;;;;;-0.60;99.90;;;;;;5054912;28;19971;-77
2022/04/11 04:06:49;;;;;;;;;;;-0.60;99.90;;;;;;5055020;28;19909;-77
2022/04/11 04:09:14;;;;;;;;;;;-0.60;99.90;;;;;;5055238;28;19909;-77
2022/04/11 04:11:40;;;;;;;;;;;-0.70;99.90;;;;;;5054405;28;19912;-78
2022/04/11 04:14:05;;;;;;;;;;;-0.60;99.90;;;;;;5053532;28;19927;-78
2022/04/11 04:16:31;;;;;;;;;;;-0.70;99.90;;;;;;5058576;28;19905;-78
2022/04/11 04:18:56;;;;;;;;;;;-0.70;99.90;;;;;;5058818;28;19990;-77
2022/04/11 04:21:22;;;;;;;;;;;-0.70;99.90;;;;;;5057033;28;19912;-77
2022/04/11 04:23:47;;;;;;;;;;;-0.70;99.90;;;;;;5058381;28;19909;-78
2022/04/11 04:26:13;;;;;;;;;;;-0.70;99.90;;;;;;5057252;28;20418;-78
2022/04/11 04:28:39;;;;;;;;;;;-0.60;99.90;;;;;;5058215;28;20327;-78
2022/04/11 04:31:04;;;;;;;;;;;-0.70;99.90;;;;;;5057111;28;20280;-77
2022/04/11 04:33:31;;;;;;;;;;;-0.70;99.90;;;;;;5058421;28;19904;-77
2022/04/11 04:35:56;;;;;;;;;;;-0.70;99.90;;;;;;5057048;28;19995;-78
2022/04/11 04:38:22;;;;;;;;;;;-0.70;99.90;;;;;;5058398;28;19956;-77
2022/04/11 04:40:47;;;;;;;;;;;-0.70;99.90;;;;;;5058210;28;19921;-78
2022/04/11 04:43:13;;;;;;;;;;;-0.70;99.90;;;;;;5057632;28;19904;-77
2022/04/11 04:45:38;;;;;;;;;;;-0.70;99.90;;;;;;5056965;28;20015;-77
2022/04/11 04:48:05;;;;;;;;;;;-0.70;99.90;;;;;;5055511;28;19915;-76
2022/04/11 04:50:30;;;;;;;;;;;-0.70;99.90;;;;;;5056889;28;19904;-77
2022/04/11 04:52:56;;;;;;;;;;;-0.70;99.90;;;;;;5057140;28;19904;-77
2022/04/11 04:55:22;;;;;;;;;;;-0.70;99.90;;;;;;5055700;28;19905;-77
2022/04/11 04:57:48;;;;;;;;;;;-0.80;99.90;;;;;;5057153;28;19959;-77
2022/04/11 05:00:14;;;;;;;;;;;-0.90;99.90;;;;;;5055937;28;19909;-77
2022/04/11 05:02:40;;;;;;;;;;;-0.90;99.90;;;;;;5057128;28;20276;-77
2022/04/11 05:05:10;;;;;;;;;;;-0.90;99.90;;;;;;5057163;28;19904;-77
2022/04/11 05:07:35;;;;;;;;;;;-0.90;99.90;;;;;;5057211;28;19909;-77
2022/04/11 05:10:02;;;;;;;;;;;-0.90;99.90;;;;;;5057378;28;19912;-78
2022/04/11 05:12:28;;;;;;;;;;;-0.90;99.90;;;;;;5056419;28;19908;-77
2022/04/11 05:14:53;;;;;;;;;;;-1.00;99.90;;;;;;5056349;28;19927;-78
2022/04/11 05:17:19;;;;;;;;;;;-1.10;99.90;;;;;;5056598;28;19991;-77
2022/04/11 05:19:44;;;;;;;;;;;-1.10;99.90;;;;;;5056699;28;19905;-77
2022/04/11 05:22:10;;;;;;;;;;;-1.10;99.90;;;;;;5056508;28;19905;-77
2022/04/11 05:24:35;;;;;;;;;;;-1.10;99.90;;;;;;5056731;28;19955;-77
2022/04/11 05:27:01;;;;;;;;;;;-1.00;99.90;;;;;;5056481;28;19905;-77
2022/04/11 05:29:27;;;;;;;;;;;-1.00;99.90;;;;;;5058527;28;19909;-77
2022/04/11 05:31:52;;;;;;;;;;;-1.00;99.90;;;;;;5056563;28;19940;-77
2022/04/11 05:34:18;;;;;;;;;;;-1.00;99.90;;;;;;5054991;28;19958;-77
2022/04/11 05:36:43;;;;;;;;;;;-1.10;99.90;;;;;;5056412;28;19905;-76
2022/04/11 05:39:10;;;;;;;;;;;-1.10;99.90;;;;;;5055920;28;19919;-77
2022/04/11 05:41:36;;;;;;;;;;;-1.20;99.90;;;;;;5056023;28;19904;-77
2022/04/11 05:44:01;;;;;;;;;;;-1.20;99.90;;;;;;5055880;28;20043;-77
2022/04/11 05:46:27;;;;;;;;;;;-1.10;99.90;;;;;;5055872;28;19912;-77
2022/04/11 05:48:52;;;;;;;;;;;-1.10;99.90;;;;;;5055850;28;20003;-77
2022/04/11 05:51:18;;;;;;;;;;;-1.10;99.90;;;;;;5054673;28;20394;-77
2022/04/11 05:53:43;;;;;;;;;;;-1.00;99.90;;;;;;5054331;28;19911;-77
2022/04/11 05:56:09;;;;;;;;;;;-0.90;99.90;;;;;;5055995;28;20253;-77
2022/04/11 05:58:36;;;;;;;;;;;-0.90;99.90;;;;;;5055810;28;20003;-77
2022/04/11 06:01:01;;;;;;;;;;;-0.80;99.90;;;;;;5055798;28;20364;-77
2022/04/11 06:03:28;;;;;;;;;;;-0.70;99.90;;;;;;5055340;28;19905;-77
2022/04/11 06:05:53;;;;;;;;;;;-0.70;99.90;;;;;;5054159;28;19991;-77
2022/04/11 06:08:19;;;;;;;;;;;-0.60;99.90;;;;;;5055434;28;19959;-77
2022/04/11 06:10:46;;;;;;;;;;;-0.50;99.90;;;;;;5054118;28;19904;-77
2022/04/11 06:13:12;;;;;;;;;;;-0.50;99.90;;;;;;5055492;28;19959;-77
2022/04/11 06:15:38;;;;;;;;;;;-0.40;99.90;;;;;;5055474;28;19909;-77
2022/04/11 06:18:03;;;;;;;;;;;-0.40;99.90;;;;;;5055239;28;19905;-77
2022/04/11 06:20:29;;;;;;;;;;;-0.30;99.90;;;;;;5055622;28;19957;-77
2022/04/11 06:22:54;;;;;;;;;;;-0.20;99.90;;;;;;5055337;28;19905;-77
2022/04/11 06:25:20;;;;;;;;;;;-0.20;99.90;;;;;;5055015;28;19947;-77
2022/04/11 06:27:45;;;;;;;;;;;-0.20;99.90;;;;;;5055004;28;19909;-77
2022/04/11 06:30:11;;;;;;;;;;;-0.10;99.90;;;;;;5054899;28;20386;-77
2022/04/11 06:32:37;;;;;;;;;;;-0.10;99.90;;;;;;5053776;28;19908;-77
2022/04/11 06:35:03;;;;;;;;;;;0.00;99.90;;;;;;5055115;28;19958;-77
2022/04/11 06:37:28;;;;;;;;;;;0.00;99.90;;;;;;5054337;28;19967;-77
2022/04/11 06:39:54;;;;;;;;;;;0.10;99.90;;;;;;5054772;28;19974;-77
2022/04/11 06:42:20;;;;;;;;;;;0.10;99.90;;;;;;5055313;28;19959;-77
2022/04/11 06:44:46;;;;;;;;;;;0.20;99.90;;;;;;5054605;28;19931;-77
2022/04/11 06:47:11;;;;;;;;;;;0.30;99.90;;;;;;5054681;28;20386;-77
2022/04/11 06:49:38;;;;;;;;;;;0.40;99.90;;;;;;5053310;28;19920;-78
2022/04/11 06:52:04;;;;;;;;;;;0.40;99.90;;;;;;5054813;28;20004;-77
2022/04/11 06:54:33;;;;;;;;;;;0.50;99.90;;;;;;5055006;28;19911;-77
2022/04/11 06:56:58;;;;;;;;;;;0.50;99.90;;;;;;5054755;28;19913;-77
2022/04/11 06:59:24;;;;;;;;;;;0.60;99.90;;;;;;5054603;28;19958;-77
2022/04/11 07:01:52;;;;;;;;;;;0.60;99.90;;;;;;5054335;28;20030;-77
2022/04/11 07:04:18;;;;;;;;;;;0.70;99.90;;;;;;5053107;28;19992;-77
2022/04/11 07:06:43;;;;;;;;;;;0.80;99.90;;;;;;5055158;28;19904;-77
2022/04/11 07:09:09;;;;;;;;;;;0.80;99.90;;;;;;5055261;28;19916;-77
2022/04/11 07:11:34;;;;;;;;;;;0.90;99.90;;;;;;5055111;28;20387;-78
2022/04/11 07:14:00;;;;;;;;;;;1.00;99.90;;;;;;5055300;28;19942;-78
2022/04/11 07:16:26;;;;;;;;;;;1.10;99.90;;;;;;5055480;28;19911;-78
2022/04/11 07:18:51;;;;;;;;;;;1.20;99.90;;;;;;5055104;28;19911;-78
2022/04/11 07:21:17;;;;;;;;;;;1.30;99.90;;;;;;5054353;28;19904;-78
2022/04/11 07:23:43;;;;;;;;;;;1.30;99.90;;;;;;5053594;28;20005;-78
2022/04/11 07:26:08;;;;;;;;;;;1.40;99.90;;;;;;5054712;28;19952;-78
2022/04/11 07:28:34;;;;;;;14.93;8.05;;;1.50;99.90;;;;;;5053855;28;20003;-78
2022/04/11 07:31:00;;;;;;;11.38;6.47;;;1.60;99.90;;;;;;5053829;28;20029;-77
2022/04/11 07:33:25;;;;;;;10.45;6.85;;;1.80;99.90;;;;;;5054075;28;20032;-78
2022/04/11 07:35:51;;;;;;;11.68;7.03;;;1.90;99.90;;;;;;5053806;28;20063;-78
2022/04/11 07:38:17;;;;;;;12.40;6.75;;;2.00;99.90;;;;;;5054645;28;20032;-78
2022/04/11 07:40:42;;;;;;;9.02;5.97;;;2.20;99.90;;;;;;5054139;28;20390;-78
2022/04/11 07:43:08;;;;;;;9.13;5.75;;;2.30;99.90;;;;;;5054459;28;20040;-78
2022/04/11 07:45:34;;;;;;;7.70;4.68;;;2.50;99.90;;;;;;5052929;28;20033;-78
2022/04/11 07:47:59;;;;;;;8.85;4.18;;;2.50;99.90;;;;;;5054658;28;20029;-77
2022/04/11 07:50:25;;;;;;;8.10;4.57;;;2.60;99.90;;;;;;5056708;28;20025;-77
2022/04/11 07:52:51;;;;;;;7.78;4.38;;;2.70;99.90;;;;;;5058411;28;20013;-77
2022/04/11 07:55:17;;;;;;;11.68;5.32;;;2.80;99.90;;;;;;5058150;28;20028;-77
2022/04/11 07:57:43;;;;;;;7.90;4.55;;;2.90;99.90;;;;;;5058579;28;20037;-78
2022/04/11 08:00:09;;;;;;;8.15;5.00;;;3.00;99.90;;;;;;5058521;28;20060;-78
2022/04/11 08:02:35;;;;;;;9.13;4.88;;;3.10;99.90;;;;;;5058758;28;20032;-78
2022/04/11 08:05:03;;;;;;;9.52;5.50;;;3.10;99.90;;;;;;5058434;28;20385;-78
2022/04/11 08:07:37;;;;;;;6.18;3.95;;;3.20;99.90;;;;;;5058935;28;20029;-78
2022/04/11 08:10:05;;;;;;;8.75;4.72;;;3.20;99.90;;;;;;5058772;28;20025;-77
2022/04/11 08:12:31;;;;;;;5.97;4.47;;;3.30;99.90;;;;;;5058403;28;20099;-78
2022/04/11 08:14:57;;;;;;;7.55;4.40;;;3.40;99.90;;;;;;5058214;28;20060;-77
2022/04/11 08:17:23;;;;;;;7.05;4.72;;;3.60;99.90;;;;;;5058794;28;20354;-77
2022/04/11 08:19:49;;;;;;;6.93;4.43;;;3.70;99.90;;;;;;5058498;28;20021;-77
2022/04/11 08:22:15;;;;;;;8.68;4.00;;;3.70;99.90;;;;;;5057048;28;20023;-77
2022/04/11 08:24:41;;;;;;;6.78;4.28;;;3.80;99.90;;;;;;5058993;28;20517;-77
2022/04/11 08:27:06;;;;;;;7.15;4.63;;;4.00;99.90;;;;;;5058282;28;20025;-77
2022/04/11 08:29:32;;;;;;;6.88;4.15;;;4.00;99.90;;;;;;5058050;28;20025;-78
2022/04/11 08:31:58;;;;;;;6.70;4.35;;;4.30;99.90;;;;;;5056625;28;20025;-77
2022/04/11 08:34:24;;;;;;;6.13;3.78;;;4.40;99.90;;;;;;5056877;28;20028;-77
2022/04/11 08:36:49;;;;;;;6.55;3.97;;;4.50;99.90;;;;;;5058357;28;20053;-78
2022/04/11 08:39:16;;;;;;;8.52;5.00;;;4.70;99.90;;;;;;5058070;28;20029;-77
2022/04/11 08:41:42;;;;;;;5.43;2.95;;;4.80;99.90;;;;;;5058067;28;20029;-78
2022/04/11 08:44:08;;;;;;;8.57;3.92;;;4.90;99.90;;;;;;5058452;28;20029;-78
2022/04/11 08:46:35;;;;;;;7.00;3.33;;;5.00;99.90;;;;;;5058511;28;20036;-77
2022/04/11 08:49:03;;;;;;;5.88;3.47;;;5.10;99.90;;;;;;5056407;28;20021;-77
2022/04/11 08:51:33;;;;;;;7.97;4.00;;;5.20;99.90;;;;;;5057640;28;20013;-77
2022/04/11 08:54:01;;;;;;;5.95;3.30;;;5.40;99.90;;;;;;5057289;28;20017;-77
2022/04/11 08:56:28;;;;;;;9.90;3.60;;;5.50;99.90;;;;;;5057833;28;20024;-77
2022/04/11 08:58:54;;;;;;;6.72;3.65;;;5.70;99.90;;;;;;5056609;28;20095;-77
2022/04/11 09:01:20;;;;;;;4.70;3.40;;;5.80;99.90;;;;;;5055788;28;20115;-77
2022/04/11 09:03:47;;;;;;;4.75;2.85;;;6.00;99.90;;;;;;5057166;28;20064;-78
2022/04/11 09:06:17;;;;;;;5.03;2.88;;;6.10;99.40;;;;;;5057411;28;20027;-78
2022/04/11 09:08:50;;;;;;;3.97;2.47;;;6.20;99.40;;;;;;5057377;28;20108;-78
2022/04/11 09:11:37;;;;;;;4.50;2.70;;;6.30;96.40;;;;;;5056269;28;20079;-78
2022/04/11 09:14:05;;;;;;;4.68;2.50;;;6.40;97.40;;;;;;5057718;28;20025;-78
2022/04/11 09:16:43;;;;;;;4.80;2.20;;;6.50;95.90;;;;;;5057301;28;20032;-78
2022/04/11 09:19:22;;;;;;;3.55;1.85;;;6.70;95.70;;;;;;5056927;28;20071;-78
2022/04/11 09:21:48;;;;;;;5.38;2.42;;;6.90;92.90;;;;;;5057381;28;20033;-77
2022/04/11 09:24:15;;;;;;;;;;;7.00;93.00;;;;;;5055922;28;20032;-78
2022/04/11 09:26:40;;;;;;;;;;;7.10;90.10;;;;;;5057540;28;19905;-78
2022/04/11 09:29:06;;;;;;;;;;;7.20;87.70;;;;;;5057102;28;19958;-77
2022/04/11 09:31:32;;;;;;;;;;;7.40;84.00;;;;;;5057220;28;19999;-78
2022/04/11 09:34:16;;;;;;;;;;;7.50;85.90;;;;;;5057018;28;20392;-78
2022/04/11 09:36:46;;;;;;;;;;;7.60;84.00;;;;;;5057180;28;19912;-77
2022/04/11 09:39:12;;;;;;;;;;;7.70;85.90;;;;;;5055125;28;19919;-77
2022/04/11 09:41:42;;;;;;;;;;;7.80;79.20;;;;;;5057036;28;19923;-77
2022/04/11 09:44:26;;;;;;;;;;;7.90;82.50;;;;;;5057353;28;19905;-78
2022/04/11 09:46:54;;;;;;;;;;;8.00;83.20;;;;;;5057376;28;19905;-78
2022/04/11 09:49:19;;;;;;;;;;;8.10;83.30;;;;;;5056367;28;19909;-77
2022/04/11 09:52:04;;;;;;;;;;;8.10;83.00;;;;;;5060158;28;19904;-78
2022/04/11 09:54:30;;;;;;;;;;;8.20;81.10;;;;;;5059437;28;19905;-78
2022/04/11 09:56:59;;;;;;;;;;;8.20;79.30;;;;;;5061784;28;20414;-78
2022/04/11 09:59:25;;;;;;;;;;;8.30;79.80;;;;;;5062236;28;19905;-78
2022/04/11 10:01:51;;;;;;;;;;;8.30;80.50;;;;;;5061472;28;19927;-78
2022/04/11 10:04:20;;;;;;;;;;;8.50;82.80;;;;;;5061987;28;19908;-79
2022/04/11 10:06:46;;;;;;;;;;;8.70;83.60;;;;;;5061363;28;19912;-78
2022/04/11 10:09:12;;;;;;;;;;;8.80;84.70;;;;;;5060199;28;20050;-78
2022/04/11 10:11:39;;;;;;;;;;;9.00;82.30;;;;;;5060090;28;20400;-78
2022/04/11 10:14:05;;;;;;;;;;;9.10;79.00;;;;;;5061748;28;20003;-79
2022/04/11 10:16:30;;;;;;;;;;;9.00;81.50;;;;;;5061232;28;19908;-82
2022/04/11 10:19:00;;;;;;;;;;;9.10;79.60;;;;;;5056618;28;19911;-82
2022/04/11 10:21:26;;;;;;;;;;;9.20;77.20;;;;;;5054040;28;19911;-82
2022/04/11 10:24:05;;;;;;;;;;;9.40;81.80;;;;;;5054196;28;19905;-82
2022/04/11 10:26:44;;;;;;;;;;;9.40;77.60;;;;;;5054416;28;19905;-82
2022/04/11 10:29:28;;;;;;;;;;;9.50;76.20;;;;;;5054419;28;20291;-82
2022/04/11 10:32:04;;;;;;;;;;;9.60;76.30;;;;;;5054170;28;19927;-81
2022/04/11 10:34:49;;;;;;;;;;;9.70;74.50;;;;;;5056089;28;20374;-81
2022/04/11 10:37:16;;;;;;;;;;;9.80;76.50;;;;;;5054873;28;19904;-82
2022/04/11 10:39:44;;;;;;;;;;;9.90;76.10;;;;;;5053958;28;20347;-82
2022/04/11 10:42:11;;;;;;;;;;;10.00;77.50;;;;;;5055110;28;20364;-82
2022/04/11 10:44:39;;;;;;;;;;;10.20;71.60;;;;;;5056128;28;19905;-81
2022/04/11 10:47:08;;;;;;;;;;;10.20;70.70;;;;;;5055075;28;20376;-82
2022/04/11 10:49:49;;;;;;;;;;;10.30;70.60;;;;;;5053466;28;19958;-82
2022/04/11 10:52:26;;;;;;;;;;;10.20;73.20;;;;;;5054944;28;19904;-82
2022/04/11 10:54:54;;;;;;;;;;;10.30;70.30;;;;;;5059459;28;19904;-83
2022/04/11 10:57:32;;;;;;;;;;;10.40;72.10;;;;;;5055680;28;19905;-82
2022/04/11 11:00:04;;;;;;;;;;;10.50;67.50;;;;;;5053781;28;19997;-82
2022/04/11 11:02:59;;;;;;;;;;;10.60;69.00;;;;;;5053979;28;19908;-82
2022/04/11 11:05:29;;;;;;;;;;;10.70;68.90;;;;;;5055381;28;19904;-81
2022/04/11 11:08:09;;;;;;;;;;;10.80;71.70;;;;;;5056033;28;19913;-81
2022/04/11 11:10:44;;;;;;;;;;;11.00;70.50;;;;;;5053707;28;19948;-81
2022/04/11 11:13:32;;;;;;;;;;;11.00;72.80;;;;;;5055064;28;19947;-82
2022/04/11 11:15:58;;;;;;;;;;;11.10;71.70;;;;;;5054516;28;19908;-81
2022/04/11 11:18:24;;;;;;;;;;;11.30;68.60;;;;;;5054657;28;19905;-82
2022/04/11 11:20:57;;;;;;;;;;;11.40;68.70;;;;;;5052913;28;19939;-81
2022/04/11 11:23:33;;;;;;;;;;;11.40;71.30;;;;;;5054277;28;19911;-81
2022/04/11 11:26:12;;;;;;;;;;;11.60;69.80;;;;;;5054224;28;19958;-82
2022/04/11 11:28:40;;;;;;;;;;;11.70;68.10;;;;;;5053048;28;19962;-81
2022/04/11 11:31:05;;;;;;;;;;;11.70;66.40;;;;;;5052913;28;19955;-81
2022/04/11 11:33:31;;;;;;;;;;;11.80;63.20;;;;;;5053134;28;19904;-82
2022/04/11 11:35:57;;;;;;;;;;;11.90;62.50;;;;;;5052902;28;19947;-82
2022/04/11 11:38:27;;;;;;;;;;;11.90;65.00;;;;;;5053995;28;19905;-82
2022/04/11 11:40:55;;;;;;;;;;;11.90;66.70;;;;;;5054054;28;19913;-82
2022/04/11 11:43:21;;;;;;;;;;;12.10;65.40;;;;;;5054220;28;20443;-82
2022/04/11 11:45:47;;;;;;;;;;;12.10;65.00;;;;;;5052710;28;19912;-82
2022/04/11 11:48:23;;;;;;;;;;;12.20;69.30;;;;;;5052541;28;19909;-82
2022/04/11 11:50:49;;;;;;;;;;;12.40;64.70;;;;;;5052481;28;19943;-82
2022/04/11 11:53:15;;;;;;;;;;;12.50;66.40;;;;;;5052516;28;19912;-82
2022/04/11 11:55:54;;;;;;;;;;;12.60;65.90;;;;;;5052622;28;19905;-82
2022/04/11 11:58:19;;;;;;;;;;;12.60;63.90;;;;;;5052670;28;19905;-82
2022/04/11 12:00:48;;;;;;;;;;;12.70;64.00;;;;;;5052559;28;19912;-82
2022/04/11 12:05:59;;;;;;;;;;;12.90;63.80;;;;;;5054283;28;20280;-82
2022/04/11 12:08:24;;;;;;;;;;;12.90;61.90;;;;;;5053820;28;19908;-82
2022/04/11 12:10:52;;;;;;;;;;;13.00;63.70;;;;;;5054112;28;19995;-82
2022/04/11 12:13:25;;;;;;;;;;;13.10;65.10;;;;;;5053938;28;19905;-82
2022/04/11 12:15:51;;;;;;;;;;;13.20;65.30;;;;;;5052543;28;19912;-82
2022/04/11 12:18:16;;;;;;;;;;;13.20;64.30;;;;;;5054094;28;19912;-82
2022/04/11 12:20:45;;;;;;;;;;;13.40;64.70;;;;;;5052509;28;20360;-82
2022/04/11 12:23:15;;;;;;;;;;;13.50;62.50;;;;;;5053974;28;19905;-82
2022/04/11 12:25:44;;;;;;;;;;;13.50;60.70;;;;;;5053615;28;20360;-82
2022/04/11 12:28:10;;;;;;;;;;;13.60;57.70;;;;;;5052528;28;19996;-82
2022/04/11 12:30:36;;;;;;;;;;;13.60;55.50;;;;;;5053924;28;19958;-82
2022/04/11 12:33:02;;;;;;;;;;;13.70;56.40;;;;;;5054285;28;20284;-81
2022/04/11 12:35:27;;;;;;;;;;;13.80;54.20;;;;;;5052886;28;19912;-82
2022/04/11 12:37:56;;;;;;;;;;;13.90;58.80;;;;;;5057881;28;19905;-83
2022/04/11 12:40:39;;;;;;;;;;;13.90;58.60;;;;;;5056210;28;20349;-82
2022/04/11 12:43:05;;;;;;;;;;;14.00;56.10;;;;;;5055919;28;20060;-83
2022/04/11 12:45:30;;;;;;;;;;;14.20;58.80;;;;;;5056162;28;20017;-83
2022/04/11 12:48:04;;;;;;;;;;;14.20;60.60;;;;;;5055842;28;19908;-83
2022/04/11 12:50:30;;;;;;;;;;;14.30;58.60;;;;;;5057354;28;19912;-83
2022/04/11 12:52:56;;;;;;;;;;;14.30;57.00;;;;;;5057477;28;19905;-83
2022/04/11 12:55:25;;;;;;;;;;;14.30;55.80;;;;;;5057451;28;20387;-83
2022/04/11 12:58:08;;;;;;;;;;;14.30;53.50;;;;;;5055575;28;19912;-83
2022/04/11 13:00:35;;;;;;;;;;;14.40;51.10;;;;;;5057540;28;19912;-83
2022/04/11 13:03:01;;;;;;;;;;;14.50;55.60;;;;;;5056982;28;19943;-83
2022/04/11 13:05:27;;;;;;;;;;;14.70;49.60;;;;;;5056813;28;19904;-83
2022/04/11 13:07:54;;;;;;;;;;;14.80;51.50;;;;;;5056747;28;19916;-83
2022/04/11 13:10:23;;;;;;;;;;;14.90;50.80;;;;;;5055357;28;19912;-82
2022/04/11 13:12:50;;;;;;;;;;;14.90;48.10;;;;;;5055414;28;20272;-83
2022/04/11 13:15:16;;;;;;;;;;;15.00;47.30;;;;;;5056701;28;19927;-83
2022/04/11 13:20:27;;;;;;;;;;;15.10;51.30;;;;;;5056754;28;19912;-83
2022/04/11 13:22:53;;;;;;;;;;;15.30;50.20;;;;;;5056452;28;20011;-83
2022/04/11 13:25:19;;;;;;;2.25;0.57;;;15.50;45.00;;;;;;5056299;28;19909;-82
2022/04/11 13:27:46;;;;;;;1.85;0.43;;;15.50;46.80;;;;;;5056416;28;20028;-83
2022/04/11 13:30:13;;;;;;;1.60;0.35;;;15.60;43.60;;;;;;5056158;28;20024;-82
2022/04/11 13:32:38;;;;;;;1.67;0.47;;;15.60;45.20;;;;;;5049643;28;20048;-82
2022/04/11 13:35:05;;;;;;;2.25;0.43;;;15.60;42.40;;;;;;5044653;28;20021;-83
2022/04/11 13:37:30;;;;;;;1.80;0.75;;;15.70;40.60;;;;;;5049844;28;20009;-83
2022/04/11 13:39:56;;;;;;;0.95;0.40;;;15.70;43.40;;;;;;5057020;28;20033;-83
2022/04/11 13:42:22;;;;;;;;;;;15.70;42.40;;;;;;5055362;28;20465;-83
2022/04/11 13:44:47;;;;;;;;;;;15.80;42.70;;;;;;5054177;28;20044;-82
2022/04/11 13:47:13;;;;;;;;;;;15.90;39.60;;;;;;5054721;28;19958;-83
2022/04/11 13:49:40;;;;;;;;;;;16.00;43.60;;;;;;5056111;28;19916;-83
2022/04/11 13:52:07;;;;;;;;;;;15.90;42.30;;;;;;5054716;28;20369;-83
2022/04/11 13:54:33;;;;;;;;;;;15.90;42.90;;;;;;5055931;28;19904;-83
2022/04/11 13:56:58;;;;;;;;;;;16.00;41.80;;;;;;5055665;28;19915;-83
2022/04/11 13:59:25;;;;;;;;;;;16.10;41.40;;;;;;5053927;28;19922;-83
2022/04/11 14:01:51;;;;;;;;;;;16.30;44.80;;;;;;5055197;28;19905;-82
2022/04/11 14:04:17;;;;;;;;;;;16.50;45.50;;;;;;5054036;28;19905;-83
2022/04/11 14:06:43;;;;;;;;;;;16.70;43.60;;;;;;5055280;28;19915;-83
2022/04/11 14:09:12;;;;;;;;;;;16.70;37.80;;;;;;5054794;28;19924;-82
2022/04/11 14:11:39;;;;;;;;;;;16.50;39.40;;;;;;5054883;28;19928;-83